Elwood, Indiana
Current Conditions -  °F | °C
As of 8:35 PM on Thursday 27 Nov 2014 (Local Time) from KOKK Reporting Station
Overcast Overcast  
Wind Chill: 15°   Ceiling: 3600
Heat Index: 25°   Visibility: 10mi
Dew Point: 16°   Wind: 10mph
Humidity: 69%   Direction: 310°NW
Pressure: 30.38"   Gusts: 21mph
Location:  40.28°N, 85.82°W
Report Text: KOKK 280135Z AUTO 31009G18KT 10SM OVC036 M04/M09 A3038 RMK AO1
Loading
Personal Weather Stations






























Interactive Weather Map New forecast layout! Learn more

10-Day Weather Forecast

Advertisements
Track Severe Weather on mobile